sensor_id;sensor_type;location;lat;lon;timestamp;P1;durP1;ratioP1;P2;durP2;ratioP2
71629;SDS011;59479;51.902;8.212;2023-11-18T00:02:21;31.33;;;10.30;;
71629;SDS011;59479;51.902;8.212;2023-11-18T00:04:47;28.77;;;10.00;;
71629;SDS011;59479;51.902;8.212;2023-11-18T00:07:12;26.43;;;10.97;;
71629;SDS011;59479;51.902;8.212;2023-11-18T00:09:37;22.67;;;9.30;;
71629;SDS011;59479;51.902;8.212;2023-11-18T00:12:03;28.80;;;9.20;;
71629;SDS011;59479;51.902;8.212;2023-11-18T00:14:29;22.83;;;9.82;;
71629;SDS011;59479;51.902;8.212;2023-11-18T00:16:54;20.53;;;8.13;;
71629;SDS011;59479;51.902;8.212;2023-11-18T00:19:20;23.07;;;9.33;;
71629;SDS011;59479;51.902;8.212;2023-11-18T00:21:45;22.27;;;8.77;;
71629;SDS011;59479;51.902;8.212;2023-11-18T00:24:10;23.10;;;9.03;;
71629;SDS011;59479;51.902;8.212;2023-11-18T00:26:36;26.35;;;10.00;;
71629;SDS011;59479;51.902;8.212;2023-11-18T00:29:01;26.00;;;9.20;;
71629;SDS011;59479;51.902;8.212;2023-11-18T00:31:26;27.47;;;10.83;;
71629;SDS011;59479;51.902;8.212;2023-11-18T00:33:52;29.77;;;9.93;;
71629;SDS011;59479;51.902;8.212;2023-11-18T00:36:17;24.43;;;9.30;;
71629;SDS011;59479;51.902;8.212;2023-11-18T00:38:43;18.07;;;7.90;;
71629;SDS011;59479;51.902;8.212;2023-11-18T00:41:08;22.40;;;9.10;;
71629;SDS011;59479;51.902;8.212;2023-11-18T00:43:33;27.45;;;9.05;;
71629;SDS011;59479;51.902;8.212;2023-11-18T00:45:59;26.83;;;8.90;;
71629;SDS011;59479;51.902;8.212;2023-11-18T00:48:24;19.63;;;8.57;;
71629;SDS011;59479;51.902;8.212;2023-11-18T00:50:50;22.40;;;8.57;;
71629;SDS011;59479;51.902;8.212;2023-11-18T00:53:15;22.45;;;8.70;;
71629;SDS011;59479;51.902;8.212;2023-11-18T00:55:40;20.23;;;8.40;;
71629;SDS011;59479;51.902;8.212;2023-11-18T00:58:06;16.80;;;7.70;;
71629;SDS011;59479;51.902;8.212;2023-11-18T01:00:31;21.90;;;8.73;;
71629;SDS011;59479;51.902;8.212;2023-11-18T01:02:57;20.67;;;8.67;;
71629;SDS011;59479;51.902;8.212;2023-11-18T01:05:22;16.10;;;7.20;;
71629;SDS011;59479;51.902;8.212;2023-11-18T01:07:47;13.23;;;6.40;;
71629;SDS011;59479;51.902;8.212;2023-11-18T01:10:13;20.75;;;8.20;;
71629;SDS011;59479;51.902;8.212;2023-11-18T01:12:39;16.90;;;7.43;;
71629;SDS011;59479;51.902;8.212;2023-11-18T01:15:05;17.73;;;6.93;;
71629;SDS011;59479;51.902;8.212;2023-11-18T01:17:31;17.08;;;7.78;;
71629;SDS011;59479;51.902;8.212;2023-11-18T01:19:57;16.53;;;7.07;;
71629;SDS011;59479;51.902;8.212;2023-11-18T01:22:23;16.80;;;7.57;;
71629;SDS011;59479;51.902;8.212;2023-11-18T01:24:49;19.13;;;8.13;;
71629;SDS011;59479;51.902;8.212;2023-11-18T01:27:16;14.27;;;6.28;;
71629;SDS011;59479;51.902;8.212;2023-11-18T01:29:42;17.27;;;7.22;;
71629;SDS011;59479;51.902;8.212;2023-11-18T01:32:08;12.73;;;6.47;;
71629;SDS011;59479;51.902;8.212;2023-11-18T01:34:37;15.15;;;6.25;;
71629;SDS011;59479;51.902;8.212;2023-11-18T01:37:04;19.08;;;7.63;;
71629;SDS011;59479;51.902;8.212;2023-11-18T01:39:35;15.00;;;6.43;;
71629;SDS011;59479;51.902;8.212;2023-11-18T01:42:01;13.90;;;6.70;;
71629;SDS011;59479;51.902;8.212;2023-11-18T01:44:28;15.38;;;6.90;;
71629;SDS011;59479;51.902;8.212;2023-11-18T01:47:03;15.27;;;7.35;;
71629;SDS011;59479;51.902;8.212;2023-11-18T01:49:31;16.75;;;6.70;;
71629;SDS011;59479;51.902;8.212;2023-11-18T01:51:57;13.67;;;6.53;;
71629;SDS011;59479;51.902;8.212;2023-11-18T01:54:24;14.07;;;6.05;;
71629;SDS011;59479;51.902;8.212;2023-11-18T01:56:50;17.38;;;7.22;;
71629;SDS011;59479;51.902;8.212;2023-11-18T01:59:17;16.73;;;8.02;;
71629;SDS011;59479;51.902;8.212;2023-11-18T02:01:51;14.85;;;6.68;;
71629;SDS011;59479;51.902;8.212;2023-11-18T02:04:18;11.85;;;6.53;;
71629;SDS011;59479;51.902;8.212;2023-11-18T02:06:45;14.00;;;7.13;;
71629;SDS011;59479;51.902;8.212;2023-11-18T02:09:13;12.50;;;6.50;;
71629;SDS011;59479;51.902;8.212;2023-11-18T02:11:52;13.38;;;6.85;;
71629;SDS011;59479;51.902;8.212;2023-11-18T02:14:19;16.50;;;6.28;;
71629;SDS011;59479;51.902;8.212;2023-11-18T02:16:45;17.48;;;6.50;;
71629;SDS011;59479;51.902;8.212;2023-11-18T02:19:20;15.25;;;6.72;;
71629;SDS011;59479;51.902;8.212;2023-11-18T02:21:49;13.80;;;6.30;;
71629;SDS011;59479;51.902;8.212;2023-11-18T02:24:33;12.77;;;6.82;;
71629;SDS011;59479;51.902;8.212;2023-11-18T02:27:02;11.50;;;6.00;;
71629;SDS011;59479;51.902;8.212;2023-11-18T02:29:40;10.93;;;5.97;;
71629;SDS011;59479;51.902;8.212;2023-11-18T02:32:15;16.30;;;6.90;;
71629;SDS011;59479;51.902;8.212;2023-11-18T02:35:02;9.97;;;5.47;;
71629;SDS011;59479;51.902;8.212;2023-11-18T02:37:36;13.13;;;6.78;;
71629;SDS011;59479;51.902;8.212;2023-11-18T02:40:04;12.90;;;5.93;;
71629;SDS011;59479;51.902;8.212;2023-11-18T02:42:34;11.20;;;4.95;;
71629;SDS011;59479;51.902;8.212;2023-11-18T02:45:04;9.07;;;4.80;;
71629;SDS011;59479;51.902;8.212;2023-11-18T02:47:33;10.33;;;5.63;;
71629;SDS011;59479;51.902;8.212;2023-11-18T02:49:58;12.00;;;5.72;;
71629;SDS011;59479;51.902;8.212;2023-11-18T02:52:30;11.82;;;5.90;;
71629;SDS011;59479;51.902;8.212;2023-11-18T02:54:57;13.60;;;5.60;;
71629;SDS011;59479;51.902;8.212;2023-11-18T02:57:22;11.70;;;6.07;;
71629;SDS011;59479;51.902;8.212;2023-11-18T02:59:47;9.87;;;5.30;;
71629;SDS011;59479;51.902;8.212;2023-11-18T03:02:13;19.30;;;6.40;;
71629;SDS011;59479;51.902;8.212;2023-11-18T03:04:40;11.88;;;6.45;;
71629;SDS011;59479;51.902;8.212;2023-11-18T03:07:09;11.40;;;5.30;;
71629;SDS011;59479;51.902;8.212;2023-11-18T03:09:34;9.50;;;5.23;;
71629;SDS011;59479;51.902;8.212;2023-11-18T03:12:01;10.05;;;5.25;;
71629;SDS011;59479;51.902;8.212;2023-11-18T03:14:26;13.33;;;6.23;;
71629;SDS011;59479;51.902;8.212;2023-11-18T03:16:51;13.73;;;6.10;;
71629;SDS011;59479;51.902;8.212;2023-11-18T03:19:17;16.90;;;6.03;;
71629;SDS011;59479;51.902;8.212;2023-11-18T03:21:42;10.00;;;5.97;;
71629;SDS011;59479;51.902;8.212;2023-11-18T03:24:08;9.90;;;5.70;;
71629;SDS011;59479;51.902;8.212;2023-11-18T03:26:34;12.77;;;5.68;;
71629;SDS011;59479;51.902;8.212;2023-11-18T03:28:59;12.30;;;6.17;;
71629;SDS011;59479;51.902;8.212;2023-11-18T03:31:25;12.13;;;6.07;;
71629;SDS011;59479;51.902;8.212;2023-11-18T03:33:51;11.27;;;6.55;;
71629;SDS011;59479;51.902;8.212;2023-11-18T03:36:16;9.23;;;5.50;;
71629;SDS011;59479;51.902;8.212;2023-11-18T03:38:43;11.07;;;5.93;;
71629;SDS011;59479;51.902;8.212;2023-11-18T03:41:08;10.73;;;5.45;;
71629;SDS011;59479;51.902;8.212;2023-11-18T03:43:34;10.83;;;5.63;;
71629;SDS011;59479;51.902;8.212;2023-11-18T03:45:59;8.10;;;5.47;;
71629;SDS011;59479;51.902;8.212;2023-11-18T03:48:25;9.40;;;4.60;;
71629;SDS011;59479;51.902;8.212;2023-11-18T03:50:50;8.82;;;4.82;;
71629;SDS011;59479;51.902;8.212;2023-11-18T03:53:16;9.43;;;5.50;;
71629;SDS011;59479;51.902;8.212;2023-11-18T03:55:41;11.43;;;5.10;;
71629;SDS011;59479;51.902;8.212;2023-11-18T03:58:06;11.10;;;5.60;;
71629;SDS011;59479;51.902;8.212;2023-11-18T04:00:34;14.75;;;6.38;;
71629;SDS011;59479;51.902;8.212;2023-11-18T04:02:59;11.57;;;4.90;;
71629;SDS011;59479;51.902;8.212;2023-11-18T04:05:24;11.33;;;5.40;;
71629;SDS011;59479;51.902;8.212;2023-11-18T04:07:50;9.65;;;5.68;;
71629;SDS011;59479;51.902;8.212;2023-11-18T04:10:15;11.30;;;4.90;;
71629;SDS011;59479;51.902;8.212;2023-11-18T04:12:43;9.82;;;4.82;;
71629;SDS011;59479;51.902;8.212;2023-11-18T04:15:11;9.17;;;5.23;;
71629;SDS011;59479;51.902;8.212;2023-11-18T04:17:37;9.60;;;5.50;;
71629;SDS011;59479;51.902;8.212;2023-11-18T04:20:03;12.60;;;6.10;;
71629;SDS011;59479;51.902;8.212;2023-11-18T04:22:33;10.52;;;5.28;;
71629;SDS011;59479;51.902;8.212;2023-11-18T04:24:59;9.37;;;5.40;;
71629;SDS011;59479;51.902;8.212;2023-11-18T04:27:24;9.70;;;5.40;;
71629;SDS011;59479;51.902;8.212;2023-11-18T04:29:49;10.65;;;5.28;;
71629;SDS011;59479;51.902;8.212;2023-11-18T04:32:16;11.00;;;5.87;;
71629;SDS011;59479;51.902;8.212;2023-11-18T04:34:41;8.75;;;4.88;;
71629;SDS011;59479;51.902;8.212;2023-11-18T04:37:07;9.53;;;4.90;;
71629;SDS011;59479;51.902;8.212;2023-11-18T04:39:33;10.52;;;5.13;;
71629;SDS011;59479;51.902;8.212;2023-11-18T04:41:58;11.57;;;5.33;;
71629;SDS011;59479;51.902;8.212;2023-11-18T04:44:24;10.27;;;5.70;;
71629;SDS011;59479;51.902;8.212;2023-11-18T04:46:49;9.67;;;5.47;;
71629;SDS011;59479;51.902;8.212;2023-11-18T04:49:15;12.45;;;5.75;;
71629;SDS011;59479;51.902;8.212;2023-11-18T04:51:40;16.00;;;6.37;;
71629;SDS011;59479;51.902;8.212;2023-11-18T04:54:05;11.53;;;5.47;;
71629;SDS011;59479;51.902;8.212;2023-11-18T04:56:33;15.63;;;7.05;;
71629;SDS011;59479;51.902;8.212;2023-11-18T04:59:00;13.25;;;6.38;;
71629;SDS011;59479;51.902;8.212;2023-11-18T05:01:25;11.27;;;5.40;;
71629;SDS011;59479;51.902;8.212;2023-11-18T05:03:51;13.03;;;6.17;;
71629;SDS011;59479;51.902;8.212;2023-11-18T05:06:16;11.90;;;5.77;;
71629;SDS011;59479;51.902;8.212;2023-11-18T05:08:41;12.27;;;5.53;;
71629;SDS011;59479;51.902;8.212;2023-11-18T05:11:07;13.43;;;5.38;;
71629;SDS011;59479;51.902;8.212;2023-11-18T05:13:32;10.17;;;5.13;;
71629;SDS011;59479;51.902;8.212;2023-11-18T05:15:58;9.57;;;5.43;;
71629;SDS011;59479;51.902;8.212;2023-11-18T05:18:24;14.38;;;5.63;;
71629;SDS011;59479;51.902;8.212;2023-11-18T05:20:49;11.47;;;6.07;;
71629;SDS011;59479;51.902;8.212;2023-11-18T05:23:15;11.87;;;6.23;;
71629;SDS011;59479;51.902;8.212;2023-11-18T05:25:41;12.93;;;5.15;;
71629;SDS011;59479;51.902;8.212;2023-11-18T05:28:08;12.93;;;6.17;;
71629;SDS011;59479;51.902;8.212;2023-11-18T05:30:34;14.52;;;5.80;;
71629;SDS011;59479;51.902;8.212;2023-11-18T05:33:01;12.53;;;5.17;;
71629;SDS011;59479;51.902;8.212;2023-11-18T05:35:30;11.05;;;5.93;;
71629;SDS011;59479;51.902;8.212;2023-11-18T05:37:56;12.07;;;5.55;;
71629;SDS011;59479;51.902;8.212;2023-11-18T05:40:22;12.50;;;6.00;;
71629;SDS011;59479;51.902;8.212;2023-11-18T05:42:48;12.13;;;5.68;;
71629;SDS011;59479;51.902;8.212;2023-11-18T05:45:16;9.50;;;5.47;;
71629;SDS011;59479;51.902;8.212;2023-11-18T05:47:55;17.67;;;5.97;;
71629;SDS011;59479;51.902;8.212;2023-11-18T05:50:22;12.80;;;5.65;;
71629;SDS011;59479;51.902;8.212;2023-11-18T05:52:49;10.45;;;5.65;;
71629;SDS011;59479;51.902;8.212;2023-11-18T05:55:15;13.88;;;5.70;;
71629;SDS011;59479;51.902;8.212;2023-11-18T05:57:41;13.83;;;5.40;;
71629;SDS011;59479;51.902;8.212;2023-11-18T06:00:10;10.75;;;5.30;;
71629;SDS011;59479;51.902;8.212;2023-11-18T06:02:40;9.03;;;4.87;;
71629;SDS011;59479;51.902;8.212;2023-11-18T06:05:09;10.00;;;5.60;;
71629;SDS011;59479;51.902;8.212;2023-11-18T06:07:35;9.55;;;5.53;;
71629;SDS011;59479;51.902;8.212;2023-11-18T06:10:01;13.00;;;4.80;;
71629;SDS011;59479;51.902;8.212;2023-11-18T06:12:30;14.25;;;6.25;;
71629;SDS011;59479;51.902;8.212;2023-11-18T06:14:56;13.90;;;5.60;;
71629;SDS011;59479;51.902;8.212;2023-11-18T06:17:22;10.85;;;4.53;;
71629;SDS011;59479;51.902;8.212;2023-11-18T06:19:48;11.82;;;5.47;;
71629;SDS011;59479;51.902;8.212;2023-11-18T06:22:14;8.63;;;5.07;;
71629;SDS011;59479;51.902;8.212;2023-11-18T06:24:40;11.63;;;5.13;;
71629;SDS011;59479;51.902;8.212;2023-11-18T06:27:06;10.88;;;5.10;;
71629;SDS011;59479;51.902;8.212;2023-11-18T06:29:32;11.77;;;5.30;;
71629;SDS011;59479;51.902;8.212;2023-11-18T06:31:57;12.27;;;5.95;;
71629;SDS011;59479;51.902;8.212;2023-11-18T06:34:23;11.43;;;5.10;;
71629;SDS011;59479;51.902;8.212;2023-11-18T06:36:48;11.37;;;6.23;;
71629;SDS011;59479;51.902;8.212;2023-11-18T06:39:13;11.27;;;5.60;;
71629;SDS011;59479;51.902;8.212;2023-11-18T06:41:39;21.37;;;5.80;;
71629;SDS011;59479;51.902;8.212;2023-11-18T06:44:13;12.32;;;6.00;;
71629;SDS011;59479;51.902;8.212;2023-11-18T06:46:43;13.13;;;6.03;;
71629;SDS011;59479;51.902;8.212;2023-11-18T06:49:09;10.68;;;5.43;;
71629;SDS011;59479;51.902;8.212;2023-11-18T06:51:40;13.15;;;6.25;;
71629;SDS011;59479;51.902;8.212;2023-11-18T06:54:06;11.90;;;5.88;;
71629;SDS011;59479;51.902;8.212;2023-11-18T06:56:35;12.05;;;6.00;;
71629;SDS011;59479;51.902;8.212;2023-11-18T06:59:03;10.43;;;5.00;;
71629;SDS011;59479;51.902;8.212;2023-11-18T07:01:32;11.95;;;5.10;;
71629;SDS011;59479;51.902;8.212;2023-11-18T07:04:00;11.70;;;4.82;;
71629;SDS011;59479;51.902;8.212;2023-11-18T07:06:26;8.20;;;4.53;;
71629;SDS011;59479;51.902;8.212;2023-11-18T07:08:52;11.00;;;5.28;;
71629;SDS011;59479;51.902;8.212;2023-11-18T07:11:18;11.73;;;5.55;;
71629;SDS011;59479;51.902;8.212;2023-11-18T07:13:46;12.07;;;5.00;;
71629;SDS011;59479;51.902;8.212;2023-11-18T07:16:12;11.25;;;5.22;;
71629;SDS011;59479;51.902;8.212;2023-11-18T07:18:39;9.65;;;4.97;;
71629;SDS011;59479;51.902;8.212;2023-11-18T07:21:07;15.27;;;6.22;;
71629;SDS011;59479;51.902;8.212;2023-11-18T07:23:34;9.35;;;4.85;;
71629;SDS011;59479;51.902;8.212;2023-11-18T07:25:59;11.47;;;5.57;;
71629;SDS011;59479;51.902;8.212;2023-11-18T07:28:25;8.90;;;5.18;;
71629;SDS011;59479;51.902;8.212;2023-11-18T07:30:51;11.13;;;5.50;;
71629;SDS011;59479;51.902;8.212;2023-11-18T07:33:18;9.02;;;4.72;;
71629;SDS011;59479;51.902;8.212;2023-11-18T07:35:44;9.33;;;4.70;;
71629;SDS011;59479;51.902;8.212;2023-11-18T07:38:11;12.32;;;5.28;;
71629;SDS011;59479;51.902;8.212;2023-11-18T07:40:37;12.98;;;5.50;;
71629;SDS011;59479;51.902;8.212;2023-11-18T07:43:07;11.65;;;5.30;;
71629;SDS011;59479;51.902;8.212;2023-11-18T07:45:36;10.25;;;5.18;;
71629;SDS011;59479;51.902;8.212;2023-11-18T07:48:12;10.67;;;4.57;;
71629;SDS011;59479;51.902;8.212;2023-11-18T07:50:38;9.25;;;4.90;;
71629;SDS011;59479;51.902;8.212;2023-11-18T07:53:09;8.30;;;5.47;;
71629;SDS011;59479;51.902;8.212;2023-11-18T07:55:36;9.13;;;4.15;;
71629;SDS011;59479;51.902;8.212;2023-11-18T07:58:13;8.45;;;4.80;;
71629;SDS011;59479;51.902;8.212;2023-11-18T08:00:42;10.00;;;5.30;;
71629;SDS011;59479;51.902;8.212;2023-11-18T08:03:10;10.98;;;5.28;;
71629;SDS011;59479;51.902;8.212;2023-11-18T08:08:11;11.05;;;5.10;;
71629;SDS011;59479;51.902;8.212;2023-11-18T08:10:37;7.82;;;4.40;;
71629;SDS011;59479;51.902;8.212;2023-11-18T08:13:07;9.80;;;4.50;;
71629;SDS011;59479;51.902;8.212;2023-11-18T08:15:34;8.80;;;5.07;;
71629;SDS011;59479;51.902;8.212;2023-11-18T08:18:00;13.70;;;5.30;;
71629;SDS011;59479;51.902;8.212;2023-11-18T08:20:26;10.07;;;4.70;;
71629;SDS011;59479;51.902;8.212;2023-11-18T08:22:51;10.30;;;4.85;;
71629;SDS011;59479;51.902;8.212;2023-11-18T08:25:17;11.53;;;4.87;;
71629;SDS011;59479;51.902;8.212;2023-11-18T08:27:45;8.30;;;4.53;;
71629;SDS011;59479;51.902;8.212;2023-11-18T08:30:11;8.90;;;4.78;;
71629;SDS011;59479;51.902;8.212;2023-11-18T08:32:38;8.68;;;4.70;;
71629;SDS011;59479;51.902;8.212;2023-11-18T08:35:07;10.75;;;4.93;;
71629;SDS011;59479;51.902;8.212;2023-11-18T08:37:34;10.03;;;5.47;;
71629;SDS011;59479;51.902;8.212;2023-11-18T08:40:05;15.77;;;5.28;;
71629;SDS011;59479;51.902;8.212;2023-11-18T08:42:43;10.85;;;5.18;;
71629;SDS011;59479;51.902;8.212;2023-11-18T08:47:43;11.80;;;5.57;;
71629;SDS011;59479;51.902;8.212;2023-11-18T08:50:11;18.30;;;5.77;;
71629;SDS011;59479;51.902;8.212;2023-11-18T08:52:38;13.18;;;5.68;;
71629;SDS011;59479;51.902;8.212;2023-11-18T08:55:08;10.70;;;5.75;;
71629;SDS011;59479;51.902;8.212;2023-11-18T08:57:38;11.25;;;5.70;;
71629;SDS011;59479;51.902;8.212;2023-11-18T09:00:17;15.10;;;5.40;;
71629;SDS011;59479;51.902;8.212;2023-11-18T09:03:02;18.97;;;7.10;;
71629;SDS011;59479;51.902;8.212;2023-11-18T09:05:30;29.70;;;6.18;;
71629;SDS011;59479;51.902;8.212;2023-11-18T09:07:57;15.65;;;5.55;;
71629;SDS011;59479;51.902;8.212;2023-11-18T09:10:26;18.80;;;5.53;;
71629;SDS011;59479;51.902;8.212;2023-11-18T09:12:53;13.05;;;5.05;;
71629;SDS011;59479;51.902;8.212;2023-11-18T09:15:19;9.47;;;5.23;;
71629;SDS011;59479;51.902;8.212;2023-11-18T09:17:50;8.35;;;4.68;;
71629;SDS011;59479;51.902;8.212;2023-11-18T09:20:16;10.20;;;4.55;;
71629;SDS011;59479;51.902;8.212;2023-11-18T09:22:50;10.38;;;4.88;;
71629;SDS011;59479;51.902;8.212;2023-11-18T09:25:20;8.07;;;4.72;;
71629;SDS011;59479;51.902;8.212;2023-11-18T09:27:47;9.33;;;5.50;;
71629;SDS011;59479;51.902;8.212;2023-11-18T09:30:13;10.45;;;5.43;;
71629;SDS011;59479;51.902;8.212;2023-11-18T09:32:41;14.77;;;6.32;;
71629;SDS011;59479;51.902;8.212;2023-11-18T09:35:12;10.63;;;3.92;;
71629;SDS011;59479;51.902;8.212;2023-11-18T09:37:38;11.03;;;5.90;;
71629;SDS011;59479;51.902;8.212;2023-11-18T09:40:06;18.60;;;6.55;;
71629;SDS011;59479;51.902;8.212;2023-11-18T09:42:38;18.70;;;4.63;;
71629;SDS011;59479;51.902;8.212;2023-11-18T09:45:04;11.10;;;5.40;;
71629;SDS011;59479;51.902;8.212;2023-11-18T09:47:37;9.68;;;5.15;;
71629;SDS011;59479;51.902;8.212;2023-11-18T09:50:08;10.38;;;5.70;;
71629;SDS011;59479;51.902;8.212;2023-11-18T09:52:40;10.52;;;5.03;;
71629;SDS011;59479;51.902;8.212;2023-11-18T09:55:19;10.07;;;5.50;;
71629;SDS011;59479;51.902;8.212;2023-11-18T09:57:52;12.43;;;5.47;;
71629;SDS011;59479;51.902;8.212;2023-11-18T10:00:24;11.13;;;5.43;;
71629;SDS011;59479;51.902;8.212;2023-11-18T10:02:53;12.52;;;5.82;;
71629;SDS011;59479;51.902;8.212;2023-11-18T10:05:22;11.98;;;5.55;;
71629;SDS011;59479;51.902;8.212;2023-11-18T10:07:51;9.65;;;4.72;;
71629;SDS011;59479;51.902;8.212;2023-11-18T10:10:17;9.47;;;5.23;;
71629;SDS011;59479;51.902;8.212;2023-11-18T10:12:45;9.70;;;5.38;;
71629;SDS011;59479;51.902;8.212;2023-11-18T10:15:17;14.02;;;4.95;;
71629;SDS011;59479;51.902;8.212;2023-11-18T10:17:44;7.78;;;4.95;;
71629;SDS011;59479;51.902;8.212;2023-11-18T10:20:46;11.67;;;5.03;;
71629;SDS011;59479;51.902;8.212;2023-11-18T10:23:20;11.60;;;5.40;;
71629;SDS011;59479;51.902;8.212;2023-11-18T10:28:21;9.30;;;4.65;;
71629;SDS011;59479;51.902;8.212;2023-11-18T10:30:47;8.45;;;4.95;;
71629;SDS011;59479;51.902;8.212;2023-11-18T10:33:14;11.63;;;5.87;;
71629;SDS011;59479;51.902;8.212;2023-11-18T10:35:48;11.27;;;4.75;;
71629;SDS011;59479;51.902;8.212;2023-11-18T10:38:17;11.85;;;5.55;;
71629;SDS011;59479;51.902;8.212;2023-11-18T10:40:42;9.17;;;4.73;;
71629;SDS011;59479;51.902;8.212;2023-11-18T10:43:09;9.52;;;4.80;;
71629;SDS011;59479;51.902;8.212;2023-11-18T10:45:38;9.70;;;5.00;;
71629;SDS011;59479;51.902;8.212;2023-11-18T10:48:06;10.98;;;5.10;;
71629;SDS011;59479;51.902;8.212;2023-11-18T10:50:32;8.35;;;4.90;;
71629;SDS011;59479;51.902;8.212;2023-11-18T10:52:58;12.27;;;4.93;;
71629;SDS011;59479;51.902;8.212;2023-11-18T10:55:38;8.55;;;4.70;;
71629;SDS011;59479;51.902;8.212;2023-11-18T10:58:05;12.77;;;5.30;;
71629;SDS011;59479;51.902;8.212;2023-11-18T11:00:48;11.48;;;5.55;;
71629;SDS011;59479;51.902;8.212;2023-11-18T11:03:21;13.57;;;5.40;;
71629;SDS011;59479;51.902;8.212;2023-11-18T11:05:48;18.65;;;5.63;;
71629;SDS011;59479;51.902;8.212;2023-11-18T11:08:15;12.32;;;5.43;;
71629;SDS011;59479;51.902;8.212;2023-11-18T11:10:43;11.83;;;5.50;;
71629;SDS011;59479;51.902;8.212;2023-11-18T11:13:09;9.95;;;4.88;;
71629;SDS011;59479;51.902;8.212;2023-11-18T11:15:42;12.33;;;5.47;;
71629;SDS011;59479;51.902;8.212;2023-11-18T11:18:14;10.43;;;5.75;;
71629;SDS011;59479;51.902;8.212;2023-11-18T11:20:57;9.98;;;5.85;;
71629;SDS011;59479;51.902;8.212;2023-11-18T11:26:18;11.85;;;5.70;;
71629;SDS011;59479;51.902;8.212;2023-11-18T11:32:02;43.90;;;6.95;;
71629;SDS011;59479;51.902;8.212;2023-11-18T11:34:50;19.55;;;5.10;;
71629;SDS011;59479;51.902;8.212;2023-11-18T11:37:19;9.07;;;4.15;;
71629;SDS011;59479;51.902;8.212;2023-11-18T11:39:46;36.72;;;5.97;;
71629;SDS011;59479;51.902;8.212;2023-11-18T11:42:13;9.13;;;3.97;;
71629;SDS011;59479;51.902;8.212;2023-11-18T11:44:42;8.93;;;4.18;;
71629;SDS011;59479;51.902;8.212;2023-11-18T11:47:08;12.07;;;5.28;;
71629;SDS011;59479;51.902;8.212;2023-11-18T11:49:43;9.63;;;5.05;;
71629;SDS011;59479;51.902;8.212;2023-11-18T11:55:00;10.67;;;4.20;;
71629;SDS011;59479;51.902;8.212;2023-11-18T11:57:37;8.82;;;4.32;;
71629;SDS011;59479;51.902;8.212;2023-11-18T12:00:03;8.40;;;4.18;;
71629;SDS011;59479;51.902;8.212;2023-11-18T12:02:40;9.57;;;4.47;;
71629;SDS011;59479;51.902;8.212;2023-11-18T12:05:15;9.20;;;4.22;;
71629;SDS011;59479;51.902;8.212;2023-11-18T12:07:47;8.50;;;4.03;;
71629;SDS011;59479;51.902;8.212;2023-11-18T12:10:13;7.90;;;3.65;;
71629;SDS011;59479;51.902;8.212;2023-11-18T12:12:40;11.02;;;5.47;;
71629;SDS011;59479;51.902;8.212;2023-11-18T12:15:07;8.88;;;4.47;;
71629;SDS011;59479;51.902;8.212;2023-11-18T12:20:38;7.00;;;3.90;;
71629;SDS011;59479;51.902;8.212;2023-11-18T12:23:09;7.40;;;4.18;;
71629;SDS011;59479;51.902;8.212;2023-11-18T12:25:42;8.68;;;4.68;;
71629;SDS011;59479;51.902;8.212;2023-11-18T12:28:17;7.60;;;4.22;;
71629;SDS011;59479;51.902;8.212;2023-11-18T12:30:46;12.13;;;4.22;;
71629;SDS011;59479;51.902;8.212;2023-11-18T12:33:22;10.90;;;3.73;;
71629;SDS011;59479;51.902;8.212;2023-11-18T12:42:20;10.25;;;4.10;;
71629;SDS011;59479;51.902;8.212;2023-11-18T12:48:08;9.50;;;4.10;;
71629;SDS011;59479;51.902;8.212;2023-11-18T12:50:40;10.43;;;4.05;;
71629;SDS011;59479;51.902;8.212;2023-11-18T12:53:06;8.27;;;4.25;;
71629;SDS011;59479;51.902;8.212;2023-11-18T12:55:32;7.93;;;3.75;;
71629;SDS011;59479;51.902;8.212;2023-11-18T12:57:59;9.23;;;3.85;;
71629;SDS011;59479;51.902;8.212;2023-11-18T13:00:25;6.90;;;3.67;;
71629;SDS011;59479;51.902;8.212;2023-11-18T13:02:55;6.50;;;3.28;;
71629;SDS011;59479;51.902;8.212;2023-11-18T13:05:22;8.05;;;3.95;;
71629;SDS011;59479;51.902;8.212;2023-11-18T13:07:48;8.17;;;3.63;;
71629;SDS011;59479;51.902;8.212;2023-11-18T13:10:15;6.63;;;3.30;;
71629;SDS011;59479;51.902;8.212;2023-11-18T13:12:42;5.82;;;3.30;;
71629;SDS011;59479;51.902;8.212;2023-11-18T13:15:10;7.23;;;3.80;;
71629;SDS011;59479;51.902;8.212;2023-11-18T13:17:36;7.25;;;3.50;;
71629;SDS011;59479;51.902;8.212;2023-11-18T13:20:13;8.67;;;3.10;;
71629;SDS011;59479;51.902;8.212;2023-11-18T13:22:39;9.73;;;3.03;;
71629;SDS011;59479;51.902;8.212;2023-11-18T13:25:07;6.45;;;2.90;;
71629;SDS011;59479;51.902;8.212;2023-11-18T13:27:32;5.27;;;2.93;;
71629;SDS011;59479;51.902;8.212;2023-11-18T13:29:58;5.57;;;2.80;;
71629;SDS011;59479;51.902;8.212;2023-11-18T13:32:23;6.10;;;3.23;;
71629;SDS011;59479;51.902;8.212;2023-11-18T13:34:51;6.75;;;3.28;;
71629;SDS011;59479;51.902;8.212;2023-11-18T13:37:16;6.72;;;2.47;;
71629;SDS011;59479;51.902;8.212;2023-11-18T13:39:43;7.20;;;3.00;;
71629;SDS011;59479;51.902;8.212;2023-11-18T13:42:19;10.50;;;2.90;;
71629;SDS011;59479;51.902;8.212;2023-11-18T13:44:45;5.70;;;2.70;;
71629;SDS011;59479;51.902;8.212;2023-11-18T13:47:11;6.43;;;2.92;;
71629;SDS011;59479;51.902;8.212;2023-11-18T13:49:37;6.37;;;2.97;;
71629;SDS011;59479;51.902;8.212;2023-11-18T13:52:05;5.72;;;2.70;;
71629;SDS011;59479;51.902;8.212;2023-11-18T13:54:33;8.18;;;3.30;;
71629;SDS011;59479;51.902;8.212;2023-11-18T13:57:00;9.05;;;3.55;;
71629;SDS011;59479;51.902;8.212;2023-11-18T13:59:28;10.27;;;3.70;;
71629;SDS011;59479;51.902;8.212;2023-11-18T14:01:57;8.38;;;3.25;;
71629;SDS011;59479;51.902;8.212;2023-11-18T14:04:24;6.90;;;2.75;;
71629;SDS011;59479;51.902;8.212;2023-11-18T14:06:52;5.90;;;2.77;;
71629;SDS011;59479;51.902;8.212;2023-11-18T14:09:19;9.57;;;3.28;;
71629;SDS011;59479;51.902;8.212;2023-11-18T14:11:46;6.72;;;3.03;;
71629;SDS011;59479;51.902;8.212;2023-11-18T14:14:13;6.55;;;3.10;;
71629;SDS011;59479;51.902;8.212;2023-11-18T14:16:38;10.20;;;3.30;;
71629;SDS011;59479;51.902;8.212;2023-11-18T14:19:05;8.32;;;3.30;;
71629;SDS011;59479;51.902;8.212;2023-11-18T14:21:31;4.97;;;2.40;;
71629;SDS011;59479;51.902;8.212;2023-11-18T14:23:57;5.47;;;2.50;;
71629;SDS011;59479;51.902;8.212;2023-11-18T14:26:25;6.25;;;2.72;;
71629;SDS011;59479;51.902;8.212;2023-11-18T14:28:52;7.40;;;3.03;;
71629;SDS011;59479;51.902;8.212;2023-11-18T14:31:17;6.33;;;2.60;;
71629;SDS011;59479;51.902;8.212;2023-11-18T14:33:43;6.53;;;2.72;;
71629;SDS011;59479;51.902;8.212;2023-11-18T14:36:08;45.13;;;4.70;;
71629;SDS011;59479;51.902;8.212;2023-11-18T14:38:34;54.50;;;6.83;;
71629;SDS011;59479;51.902;8.212;2023-11-18T14:40:59;9.03;;;2.70;;
71629;SDS011;59479;51.902;8.212;2023-11-18T14:43:25;7.95;;;3.25;;
71629;SDS011;59479;51.902;8.212;2023-11-18T14:45:50;16.93;;;4.63;;
71629;SDS011;59479;51.902;8.212;2023-11-18T14:48:15;20.80;;;4.03;;
71629;SDS011;59479;51.902;8.212;2023-11-18T14:50:41;77.43;;;7.57;;
71629;SDS011;59479;51.902;8.212;2023-11-18T14:53:07;57.38;;;5.50;;
71629;SDS011;59479;51.902;8.212;2023-11-18T14:55:32;50.10;;;6.77;;
71629;SDS011;59479;51.902;8.212;2023-11-18T14:57:58;38.03;;;5.90;;
71629;SDS011;59479;51.902;8.212;2023-11-18T15:00:24;10.57;;;4.05;;
71629;SDS011;59479;51.902;8.212;2023-11-18T15:02:57;9.27;;;3.73;;
71629;SDS011;59479;51.902;8.212;2023-11-18T15:05:22;7.70;;;3.50;;
71629;SDS011;59479;51.902;8.212;2023-11-18T15:07:48;8.60;;;4.03;;
71629;SDS011;59479;51.902;8.212;2023-11-18T15:10:18;9.10;;;4.10;;
71629;SDS011;59479;51.902;8.212;2023-11-18T15:12:47;10.25;;;3.97;;